sensor_id;sensor_type;location;lat;lon;timestamp;pressure;altitude;pressure_sealevel;temperature;humidity
70027;BME280;57506;50.092;15.804;2022-07-15T00:00:40;99083.44;;;15.50;100.00
70027;BME280;57506;50.092;15.804;2022-07-15T00:03:06;99084.94;;;15.46;100.00
70027;BME280;57506;50.092;15.804;2022-07-15T00:05:31;99085.63;;;15.41;100.00
70027;BME280;57506;50.092;15.804;2022-07-15T00:07:57;99086.09;;;15.38;100.00
70027;BME280;57506;50.092;15.804;2022-07-15T00:10:29;99090.16;;;15.29;100.00
70027;BME280;57506;50.092;15.804;2022-07-15T00:12:56;99094.13;;;15.26;100.00
70027;BME280;57506;50.092;15.804;2022-07-15T00:15:24;99096.72;;;15.21;100.00
70027;BME280;57506;50.092;15.804;2022-07-15T00:17:51;99111.75;;;15.24;100.00
70027;BME280;57506;50.092;15.804;2022-07-15T00:20:18;99113.22;;;15.20;100.00
70027;BME280;57506;50.092;15.804;2022-07-15T00:22:45;99113.69;;;15.17;100.00
70027;BME280;57506;50.092;15.804;2022-07-15T00:25:11;99118.88;;;15.00;100.00
70027;BME280;57506;50.092;15.804;2022-07-15T00:27:53;99100.53;;;14.95;100.00
70027;BME280;57506;50.092;15.804;2022-07-15T00:30:20;99116.44;;;14.92;100.00
70027;BME280;57506;50.092;15.804;2022-07-15T00:32:45;99114.41;;;14.87;100.00
70027;BME280;57506;50.092;15.804;2022-07-15T00:35:12;99107.00;;;14.76;100.00
70027;BME280;57506;50.092;15.804;2022-07-15T00:37:37;99110.38;;;14.72;100.00
70027;BME280;57506;50.092;15.804;2022-07-15T00:40:03;99117.84;;;14.76;100.00
70027;BME280;57506;50.092;15.804;2022-07-15T00:42:29;99115.00;;;14.64;100.00
70027;BME280;57506;50.092;15.804;2022-07-15T00:45:11;99124.41;;;14.62;100.00
70027;BME280;57506;50.092;15.804;2022-07-15T00:47:36;99132.41;;;14.57;100.00
70027;BME280;57506;50.092;15.804;2022-07-15T00:50:02;99127.25;;;14.49;100.00
70027;BME280;57506;50.092;15.804;2022-07-15T00:52:28;99135.81;;;14.46;100.00
70027;BME280;57506;50.092;15.804;2022-07-15T00:54:59;99138.38;;;14.41;100.00
70027;BME280;57506;50.092;15.804;2022-07-15T00:57:27;99148.59;;;14.32;100.00
70027;BME280;57506;50.092;15.804;2022-07-15T00:59:54;99139.72;;;14.25;100.00
70027;BME280;57506;50.092;15.804;2022-07-15T01:02:20;99152.25;;;14.19;100.00
70027;BME280;57506;50.092;15.804;2022-07-15T01:04:47;99145.25;;;14.05;100.00
70027;BME280;57506;50.092;15.804;2022-07-15T01:07:13;99155.13;;;13.86;100.00
70027;BME280;57506;50.092;15.804;2022-07-15T01:09:39;99159.56;;;13.74;100.00
70027;BME280;57506;50.092;15.804;2022-07-15T01:12:04;99166.09;;;13.60;100.00
70027;BME280;57506;50.092;15.804;2022-07-15T01:14:30;99172.38;;;13.47;100.00
70027;BME280;57506;50.092;15.804;2022-07-15T01:16:56;99163.84;;;13.44;100.00
70027;BME280;57506;50.092;15.804;2022-07-15T01:19:21;99181.56;;;13.40;100.00
70027;BME280;57506;50.092;15.804;2022-07-15T01:21:47;99182.59;;;13.32;100.00
70027;BME280;57506;50.092;15.804;2022-07-15T01:24:12;99160.16;;;13.25;100.00
70027;BME280;57506;50.092;15.804;2022-07-15T01:26:38;99197.41;;;13.29;100.00
70027;BME280;57506;50.092;15.804;2022-07-15T01:29:03;99202.19;;;13.21;100.00
70027;BME280;57506;50.092;15.804;2022-07-15T01:31:29;99199.50;;;13.21;100.00
70027;BME280;57506;50.092;15.804;2022-07-15T01:33:54;99194.06;;;13.08;100.00
70027;BME280;57506;50.092;15.804;2022-07-15T01:36:20;99202.00;;;12.96;100.00
70027;BME280;57506;50.092;15.804;2022-07-15T01:38:46;99209.91;;;12.78;100.00
70027;BME280;57506;50.092;15.804;2022-07-15T01:41:11;99213.63;;;12.70;100.00
70027;BME280;57506;50.092;15.804;2022-07-15T01:43:37;99195.09;;;12.54;100.00
70027;BME280;57506;50.092;15.804;2022-07-15T01:46:02;99206.56;;;12.49;100.00
70027;BME280;57506;50.092;15.804;2022-07-15T01:48:28;99204.44;;;12.38;100.00
70027;BME280;57506;50.092;15.804;2022-07-15T01:51:12;99211.72;;;12.31;100.00
70027;BME280;57506;50.092;15.804;2022-07-15T01:53:38;99207.34;;;12.30;100.00
70027;BME280;57506;50.092;15.804;2022-07-15T01:56:04;99205.84;;;12.14;100.00
70027;BME280;57506;50.092;15.804;2022-07-15T01:58:30;99211.00;;;12.03;100.00
70027;BME280;57506;50.092;15.804;2022-07-15T02:00:55;99215.31;;;11.90;100.00
70027;BME280;57506;50.092;15.804;2022-07-15T02:03:21;99213.22;;;11.86;100.00
70027;BME280;57506;50.092;15.804;2022-07-15T02:05:46;99222.59;;;11.90;100.00
70027;BME280;57506;50.092;15.804;2022-07-15T02:08:12;99215.31;;;11.84;100.00
70027;BME280;57506;50.092;15.804;2022-07-15T02:10:37;99219.00;;;11.76;100.00
70027;BME280;57506;50.092;15.804;2022-07-15T02:13:10;99222.91;;;11.74;100.00
70027;BME280;57506;50.092;15.804;2022-07-15T02:15:37;99214.03;;;11.80;100.00
70027;BME280;57506;50.092;15.804;2022-07-15T02:18:03;99210.91;;;11.76;100.00
70027;BME280;57506;50.092;15.804;2022-07-15T02:20:29;99233.38;;;11.83;100.00
70027;BME280;57506;50.092;15.804;2022-07-15T02:22:55;99233.13;;;11.78;100.00
70027;BME280;57506;50.092;15.804;2022-07-15T02:25:24;99225.78;;;11.66;100.00
70027;BME280;57506;50.092;15.804;2022-07-15T02:27:58;99239.47;;;11.64;100.00
70027;BME280;57506;50.092;15.804;2022-07-15T02:30:29;99239.88;;;11.61;100.00
70027;BME280;57506;50.092;15.804;2022-07-15T02:32:55;99244.00;;;11.57;100.00
70027;BME280;57506;50.092;15.804;2022-07-15T02:35:24;99260.88;;;11.66;100.00
70027;BME280;57506;50.092;15.804;2022-07-15T02:37:49;99217.75;;;11.44;100.00
70027;BME280;57506;50.092;15.804;2022-07-15T02:40:15;99252.91;;;11.57;100.00
70027;BME280;57506;50.092;15.804;2022-07-15T02:42:50;99253.94;;;11.50;100.00
70027;BME280;57506;50.092;15.804;2022-07-15T02:45:18;99260.16;;;11.50;100.00
70027;BME280;57506;50.092;15.804;2022-07-15T02:47:44;99262.72;;;11.31;100.00
70027;BME280;57506;50.092;15.804;2022-07-15T02:50:10;99264.88;;;11.14;100.00
70027;BME280;57506;50.092;15.804;2022-07-15T02:52:35;99271.78;;;11.23;100.00
70027;BME280;57506;50.092;15.804;2022-07-15T02:55:01;99265.81;;;11.28;100.00
70027;BME280;57506;50.092;15.804;2022-07-15T02:57:27;99278.31;;;11.35;100.00
70027;BME280;57506;50.092;15.804;2022-07-15T02:59:53;99264.59;;;11.37;100.00
70027;BME280;57506;50.092;15.804;2022-07-15T03:02:19;99278.53;;;11.40;100.00
70027;BME280;57506;50.092;15.804;2022-07-15T03:04:44;99283.31;;;11.38;100.00
70027;BME280;57506;50.092;15.804;2022-07-15T03:07:10;99279.56;;;11.39;100.00
70027;BME280;57506;50.092;15.804;2022-07-15T03:09:36;99291.81;;;11.35;100.00
70027;BME280;57506;50.092;15.804;2022-07-15T03:12:02;99293.88;;;11.33;100.00
70027;BME280;57506;50.092;15.804;2022-07-15T03:14:27;99294.28;;;11.37;100.00
70027;BME280;57506;50.092;15.804;2022-07-15T03:16:53;99286.84;;;11.39;100.00
70027;BME280;57506;50.092;15.804;2022-07-15T03:19:19;99303.72;;;11.47;100.00
70027;BME280;57506;50.092;15.804;2022-07-15T03:21:46;99306.44;;;11.47;100.00
70027;BME280;57506;50.092;15.804;2022-07-15T03:24:13;99292.88;;;11.41;100.00
70027;BME280;57506;50.092;15.804;2022-07-15T03:26:39;99311.81;;;11.47;100.00
70027;BME280;57506;50.092;15.804;2022-07-15T03:29:04;99314.28;;;11.42;100.00
70027;BME280;57506;50.092;15.804;2022-07-15T03:31:30;99319.03;;;11.40;100.00
70027;BME280;57506;50.092;15.804;2022-07-15T03:33:56;99322.34;;;11.36;100.00
70027;BME280;57506;50.092;15.804;2022-07-15T03:36:22;99303.00;;;11.32;100.00
70027;BME280;57506;50.092;15.804;2022-07-15T03:38:49;99325.88;;;11.36;100.00
70027;BME280;57506;50.092;15.804;2022-07-15T03:41:17;99329.38;;;11.37;100.00
70027;BME280;57506;50.092;15.804;2022-07-15T03:43:43;99322.75;;;11.39;100.00
70027;BME280;57506;50.092;15.804;2022-07-15T03:46:09;99326.06;;;11.35;100.00
70027;BME280;57506;50.092;15.804;2022-07-15T03:48:35;99334.56;;;11.38;100.00
70027;BME280;57506;50.092;15.804;2022-07-15T03:51:00;99336.88;;;11.41;100.00
70027;BME280;57506;50.092;15.804;2022-07-15T03:53:26;99344.41;;;11.46;100.00
70027;BME280;57506;50.092;15.804;2022-07-15T03:55:51;99333.81;;;11.44;100.00
70027;BME280;57506;50.092;15.804;2022-07-15T03:58:17;99345.59;;;11.65;100.00
70027;BME280;57506;50.092;15.804;2022-07-15T04:00:42;99351.66;;;11.73;100.00
70027;BME280;57506;50.092;15.804;2022-07-15T04:03:08;99350.06;;;11.79;100.00
70027;BME280;57506;50.092;15.804;2022-07-15T04:05:34;99354.06;;;11.83;100.00
70027;BME280;57506;50.092;15.804;2022-07-15T04:07:59;99347.81;;;11.82;100.00
70027;BME280;57506;50.092;15.804;2022-07-15T04:10:25;99350.53;;;11.89;100.00
70027;BME280;57506;50.092;15.804;2022-07-15T04:12:51;99350.94;;;11.86;100.00
70027;BME280;57506;50.092;15.804;2022-07-15T04:15:16;99361.00;;;11.99;100.00
70027;BME280;57506;50.092;15.804;2022-07-15T04:17:43;99365.41;;;12.06;100.00
70027;BME280;57506;50.092;15.804;2022-07-15T04:20:09;99367.25;;;12.06;100.00
70027;BME280;57506;50.092;15.804;2022-07-15T04:22:42;99369.63;;;12.22;100.00
70027;BME280;57506;50.092;15.804;2022-07-15T04:25:09;99365.31;;;12.27;100.00
70027;BME280;57506;50.092;15.804;2022-07-15T04:27:35;99378.63;;;12.36;100.00
70027;BME280;57506;50.092;15.804;2022-07-15T04:30:01;99376.22;;;12.47;100.00
70027;BME280;57506;50.092;15.804;2022-07-15T04:32:26;99374.78;;;12.58;100.00
70027;BME280;57506;50.092;15.804;2022-07-15T04:34:52;99389.50;;;13.10;100.00
70027;BME280;57506;50.092;15.804;2022-07-15T04:37:18;99394.78;;;13.31;100.00
70027;BME280;57506;50.092;15.804;2022-07-15T04:39:44;99396.66;;;13.30;100.00
70027;BME280;57506;50.092;15.804;2022-07-15T04:42:10;99401.41;;;13.15;100.00
70027;BME280;57506;50.092;15.804;2022-07-15T04:44:35;99402.44;;;13.14;100.00
70027;BME280;57506;50.092;15.804;2022-07-15T04:47:01;99409.97;;;13.32;100.00
70027;BME280;57506;50.092;15.804;2022-07-15T04:49:29;99405.19;;;13.34;100.00
70027;BME280;57506;50.092;15.804;2022-07-15T04:52:29;99418.91;;;13.32;100.00
70027;BME280;57506;50.092;15.804;2022-07-15T04:54:56;99407.69;;;13.29;100.00
70027;BME280;57506;50.092;15.804;2022-07-15T04:57:22;99424.34;;;13.26;100.00
70027;BME280;57506;50.092;15.804;2022-07-15T04:59:48;99424.34;;;13.26;100.00
70027;BME280;57506;50.092;15.804;2022-07-15T05:02:14;99417.25;;;13.25;100.00
70027;BME280;57506;50.092;15.804;2022-07-15T05:04:40;99437.25;;;13.37;100.00
70027;BME280;57506;50.092;15.804;2022-07-15T05:07:06;99436.00;;;13.40;100.00
70027;BME280;57506;50.092;15.804;2022-07-15T05:09:32;99420.19;;;13.43;100.00
70027;BME280;57506;50.092;15.804;2022-07-15T05:11:58;99440.19;;;13.49;100.00
70027;BME280;57506;50.092;15.804;2022-07-15T05:14:25;99438.31;;;13.43;99.94
70027;BME280;57506;50.092;15.804;2022-07-15T05:16:51;99440.19;;;13.42;99.49
70027;BME280;57506;50.092;15.804;2022-07-15T05:19:16;99448.09;;;13.50;100.00
70027;BME280;57506;50.092;15.804;2022-07-15T05:21:42;99452.69;;;13.56;98.02
70027;BME280;57506;50.092;15.804;2022-07-15T05:24:08;99452.94;;;13.61;99.38
70027;BME280;57506;50.092;15.804;2022-07-15T05:26:34;99462.47;;;13.64;98.73
70027;BME280;57506;50.092;15.804;2022-07-15T05:28:59;99456.25;;;13.70;98.41
70027;BME280;57506;50.092;15.804;2022-07-15T05:31:25;99466.44;;;13.68;95.43
70027;BME280;57506;50.092;15.804;2022-07-15T05:33:51;99459.78;;;13.71;96.25
70027;BME280;57506;50.092;15.804;2022-07-15T05:36:18;99470.44;;;13.79;94.73
70027;BME280;57506;50.092;15.804;2022-07-15T05:38:44;99476.44;;;13.81;93.18
70027;BME280;57506;50.092;15.804;2022-07-15T05:41:10;99472.50;;;13.83;94.63
70027;BME280;57506;50.092;15.804;2022-07-15T05:43:36;99486.03;;;13.96;93.47
70027;BME280;57506;50.092;15.804;2022-07-15T05:46:03;99477.94;;;14.03;95.02
70027;BME280;57506;50.092;15.804;2022-07-15T05:48:29;99485.00;;;14.04;91.57
70027;BME280;57506;50.092;15.804;2022-07-15T05:50:55;99485.66;;;14.06;89.25
70027;BME280;57506;50.092;15.804;2022-07-15T05:53:21;99506.25;;;14.14;89.34
70027;BME280;57506;50.092;15.804;2022-07-15T05:55:46;99489.59;;;14.17;90.19
70027;BME280;57506;50.092;15.804;2022-07-15T05:58:12;99487.06;;;14.35;89.49
70027;BME280;57506;50.092;15.804;2022-07-15T06:00:38;99488.56;;;14.24;86.44
70027;BME280;57506;50.092;15.804;2022-07-15T06:03:04;99502.91;;;14.31;86.80
70027;BME280;57506;50.092;15.804;2022-07-15T06:05:30;99512.31;;;14.22;85.01
70027;BME280;57506;50.092;15.804;2022-07-15T06:07:56;99492.69;;;14.33;88.89
70027;BME280;57506;50.092;15.804;2022-07-15T06:10:22;99503.13;;;14.36;87.54
70027;BME280;57506;50.092;15.804;2022-07-15T06:12:47;99502.72;;;14.33;85.31
70027;BME280;57506;50.092;15.804;2022-07-15T06:15:13;99510.44;;;14.36;84.44
70027;BME280;57506;50.092;15.804;2022-07-15T06:17:39;99512.31;;;14.49;88.67
70027;BME280;57506;50.092;15.804;2022-07-15T06:20:06;99521.06;;;14.57;86.75
70027;BME280;57506;50.092;15.804;2022-07-15T06:22:32;99527.09;;;14.66;86.35
70027;BME280;57506;50.092;15.804;2022-07-15T06:24:57;99526.25;;;14.65;84.78
70027;BME280;57506;50.092;15.804;2022-07-15T06:27:23;99524.81;;;14.63;87.26
70027;BME280;57506;50.092;15.804;2022-07-15T06:29:49;99522.13;;;14.56;83.65
70027;BME280;57506;50.092;15.804;2022-07-15T06:32:15;99529.81;;;14.66;84.56
70027;BME280;57506;50.092;15.804;2022-07-15T06:34:41;99534.78;;;14.82;83.87
70027;BME280;57506;50.092;15.804;2022-07-15T06:37:07;99524.34;;;14.86;83.58
70027;BME280;57506;50.092;15.804;2022-07-15T06:39:33;99529.31;;;14.95;84.55
70027;BME280;57506;50.092;15.804;2022-07-15T06:42:00;99531.38;;;15.07;84.07
70027;BME280;57506;50.092;15.804;2022-07-15T06:44:25;99521.41;;;14.87;82.69
70027;BME280;57506;50.092;15.804;2022-07-15T06:46:52;99543.91;;;15.01;82.22
70027;BME280;57506;50.092;15.804;2022-07-15T06:49:17;99547.25;;;15.03;81.92
70027;BME280;57506;50.092;15.804;2022-07-15T06:51:43;99542.81;;;15.15;84.64
70027;BME280;57506;50.092;15.804;2022-07-15T06:54:09;99531.09;;;15.21;82.72
70027;BME280;57506;50.092;15.804;2022-07-15T06:56:34;99551.94;;;15.27;82.55
70027;BME280;57506;50.092;15.804;2022-07-15T06:59:00;99556.94;;;15.37;83.05
70027;BME280;57506;50.092;15.804;2022-07-15T07:01:26;99543.53;;;15.42;83.46
70027;BME280;57506;50.092;15.804;2022-07-15T07:03:52;99561.31;;;15.38;81.12
70027;BME280;57506;50.092;15.804;2022-07-15T07:06:17;99557.63;;;15.26;81.15
70027;BME280;57506;50.092;15.804;2022-07-15T07:08:43;99553.47;;;15.10;81.29
70027;BME280;57506;50.092;15.804;2022-07-15T07:11:12;99572.81;;;15.33;80.67
70027;BME280;57506;50.092;15.804;2022-07-15T07:13:38;99556.53;;;15.33;81.64
70027;BME280;57506;50.092;15.804;2022-07-15T07:16:03;99559.97;;;15.60;80.05
70027;BME280;57506;50.092;15.804;2022-07-15T07:18:30;99561.41;;;15.63;77.77
70027;BME280;57506;50.092;15.804;2022-07-15T07:20:56;99564.03;;;15.83;81.38
70027;BME280;57506;50.092;15.804;2022-07-15T07:23:23;99556.50;;;15.78;78.75
70027;BME280;57506;50.092;15.804;2022-07-15T07:25:52;99567.88;;;15.68;76.98
70027;BME280;57506;50.092;15.804;2022-07-15T07:28:18;99570.81;;;15.67;77.73
70027;BME280;57506;50.092;15.804;2022-07-15T07:30:44;99554.91;;;15.70;74.61
70027;BME280;57506;50.092;15.804;2022-07-15T07:33:12;99568.31;;;15.65;75.13
70027;BME280;57506;50.092;15.804;2022-07-15T07:35:38;99554.22;;;15.75;77.41
70027;BME280;57506;50.092;15.804;2022-07-15T07:38:04;99567.56;;;16.15;77.76
70027;BME280;57506;50.092;15.804;2022-07-15T07:40:30;99579.47;;;16.20;77.11
70027;BME280;57506;50.092;15.804;2022-07-15T07:42:55;99575.69;;;16.46;76.38
70027;BME280;57506;50.092;15.804;2022-07-15T07:45:24;99582.63;;;16.17;75.19
70027;BME280;57506;50.092;15.804;2022-07-15T07:47:50;99580.28;;;16.45;75.34
70027;BME280;57506;50.092;15.804;2022-07-15T07:50:16;99568.00;;;16.61;74.14
70027;BME280;57506;50.092;15.804;2022-07-15T07:52:41;99572.59;;;16.61;74.08
70027;BME280;57506;50.092;15.804;2022-07-15T07:55:08;99576.31;;;16.91;72.31
70027;BME280;57506;50.092;15.804;2022-07-15T07:57:34;99580.34;;;16.39;72.83
70027;BME280;57506;50.092;15.804;2022-07-15T08:00:01;99576.88;;;16.25;75.35
70027;BME280;57506;50.092;15.804;2022-07-15T08:02:27;99585.16;;;16.68;71.62
70027;BME280;57506;50.092;15.804;2022-07-15T08:04:53;99576.88;;;17.00;71.13
70027;BME280;57506;50.092;15.804;2022-07-15T08:07:19;99581.63;;;16.86;72.47
70027;BME280;57506;50.092;15.804;2022-07-15T08:09:45;99575.78;;;16.58;72.55
70027;BME280;57506;50.092;15.804;2022-07-15T08:12:11;99579.38;;;17.20;71.11
70027;BME280;57506;50.092;15.804;2022-07-15T08:14:36;99585.56;;;17.08;71.30
70027;BME280;57506;50.092;15.804;2022-07-15T08:17:02;99581.81;;;16.66;71.26
70027;BME280;57506;50.092;15.804;2022-07-15T08:19:28;99579.88;;;16.42;71.85
70027;BME280;57506;50.092;15.804;2022-07-15T08:21:54;99565.50;;;16.60;72.28
70027;BME280;57506;50.092;15.804;2022-07-15T08:24:19;99571.66;;;16.98;71.24
70027;BME280;57506;50.092;15.804;2022-07-15T08:26:45;99574.81;;;16.95;68.33
70027;BME280;57506;50.092;15.804;2022-07-15T08:29:11;99584.88;;;17.13;68.85
70027;BME280;57506;50.092;15.804;2022-07-15T08:31:37;99582.41;;;17.60;68.59
70027;BME280;57506;50.092;15.804;2022-07-15T08:34:04;99577.78;;;18.08;68.62
70027;BME280;57506;50.092;15.804;2022-07-15T08:36:30;99574.88;;;17.92;64.30
70027;BME280;57506;50.092;15.804;2022-07-15T08:38:56;99575.72;;;17.92;63.38
70027;BME280;57506;50.092;15.804;2022-07-15T08:41:22;99590.56;;;17.66;64.08
70027;BME280;57506;50.092;15.804;2022-07-15T08:43:48;99584.44;;;17.34;65.94
70027;BME280;57506;50.092;15.804;2022-07-15T08:46:15;99584.81;;;17.01;66.84
70027;BME280;57506;50.092;15.804;2022-07-15T08:48:49;99585.75;;;16.70;67.89
70027;BME280;57506;50.092;15.804;2022-07-15T08:51:22;99591.41;;;16.69;70.60
70027;BME280;57506;50.092;15.804;2022-07-15T08:53:50;99593.88;;;16.95;67.97
70027;BME280;57506;50.092;15.804;2022-07-15T08:56:18;99586.84;;;17.06;65.44
70027;BME280;57506;50.092;15.804;2022-07-15T08:58:45;99581.44;;;17.54;66.39
70027;BME280;57506;50.092;15.804;2022-07-15T09:01:11;99576.25;;;17.34;65.82
70027;BME280;57506;50.092;15.804;2022-07-15T09:03:36;99570.22;;;17.32;65.73
70027;BME280;57506;50.092;15.804;2022-07-15T09:06:04;99575.88;;;17.67;66.01
70027;BME280;57506;50.092;15.804;2022-07-15T09:08:29;99570.78;;;18.01;64.48
70027;BME280;57506;50.092;15.804;2022-07-15T09:10:59;99566.88;;;18.20;66.25
70027;BME280;57506;50.092;15.804;2022-07-15T09:13:35;99574.50;;;18.18;62.29
70027;BME280;57506;50.092;15.804;2022-07-15T09:16:09;99577.81;;;17.78;63.42
70027;BME280;57506;50.092;15.804;2022-07-15T09:18:38;99572.38;;;17.90;63.96
70027;BME280;57506;50.092;15.804;2022-07-15T09:21:24;99583.09;;;17.73;63.87
70027;BME280;57506;50.092;15.804;2022-07-15T09:23:52;99582.88;;;17.57;63.27
70027;BME280;57506;50.092;15.804;2022-07-15T09:26:32;99578.94;;;17.71;64.00
70027;BME280;57506;50.092;15.804;2022-07-15T09:29:07;99577.34;;;17.63;62.80
70027;BME280;57506;50.092;15.804;2022-07-15T09:31:59;99586.59;;;17.44;64.75
70027;BME280;57506;50.092;15.804;2022-07-15T09:35:05;99565.41;;;17.46;65.27
70027;BME280;57506;50.092;15.804;2022-07-15T09:37:55;99580.19;;;17.87;63.28
70027;BME280;57506;50.092;15.804;2022-07-15T09:40:21;99572.56;;;18.07;64.86
70027;BME280;57506;50.092;15.804;2022-07-15T09:43:04;99565.56;;;18.11;64.53
70027;BME280;57506;50.092;15.804;2022-07-15T09:45:32;99565.41;;;18.47;60.42
70027;BME280;57506;50.092;15.804;2022-07-15T09:48:08;99564.66;;;18.29;63.46
70027;BME280;57506;50.092;15.804;2022-07-15T09:50:36;99573.53;;;18.24;63.22
70027;BME280;57506;50.092;15.804;2022-07-15T09:53:03;99579.97;;;18.18;62.78
70027;BME280;57506;50.092;15.804;2022-07-15T09:55:30;99561.09;;;18.16;63.06
70027;BME280;57506;50.092;15.804;2022-07-15T09:57:56;99563.22;;;18.14;60.56
70027;BME280;57506;50.092;15.804;2022-07-15T10:00:24;99578.25;;;18.05;61.33
70027;BME280;57506;50.092;15.804;2022-07-15T10:02:51;99567.84;;;18.14;61.87
70027;BME280;57506;50.092;15.804;2022-07-15T10:05:16;99564.66;;;18.29;60.74
70027;BME280;57506;50.092;15.804;2022-07-15T10:07:43;99573.59;;;18.47;62.95
70027;BME280;57506;50.092;15.804;2022-07-15T10:10:09;99565.03;;;18.56;58.31
70027;BME280;57506;50.092;15.804;2022-07-15T10:13:02;99569.03;;;18.18;59.47
70027;BME280;57506;50.092;15.804;2022-07-15T10:19:19;99580.28;;;18.63;62.01
70027;BME280;57506;50.092;15.804;2022-07-15T10:21:24;99563.97;;;18.57;60.52
70027;BME280;57506;50.092;15.804;2022-07-15T10:29:30;99571.72;;;18.60;56.54
70027;BME280;57506;50.092;15.804;2022-07-15T10:31:57;99568.06;;;18.77;58.88
70027;BME280;57506;50.092;15.804;2022-07-15T10:34:32;99566.97;;;18.78;56.80
70027;BME280;57506;50.092;15.804;2022-07-15T10:37:02;99566.84;;;18.50;58.95
70027;BME280;57506;50.092;15.804;2022-07-15T10:39:52;99578.72;;;18.67;58.88
70027;BME280;57506;50.092;15.804;2022-07-15T10:42:19;99563.19;;;18.79;57.61
70027;BME280;57506;50.092;15.804;2022-07-15T10:47:23;99567.53;;;19.04;57.52
70027;BME280;57506;50.092;15.804;2022-07-15T10:49:50;99574.09;;;19.14;56.86
70027;BME280;57506;50.092;15.804;2022-07-15T10:52:16;99577.28;;;18.88;56.26
70027;BME280;57506;50.092;15.804;2022-07-15T10:57:12;99563.16;;;19.14;55.98
70027;BME280;57506;50.092;15.804;2022-07-15T10:59:55;99569.19;;;19.28;54.97
70027;BME280;57506;50.092;15.804;2022-07-15T11:02:23;99555.50;;;19.28;53.83
70027;BME280;57506;50.092;15.804;2022-07-15T11:04:49;99563.78;;;19.33;52.21
70027;BME280;57506;50.092;15.804;2022-07-15T11:19:57;99550.44;;;19.60;53.82
70027;BME280;57506;50.092;15.804;2022-07-15T11:22:27;99542.84;;;19.62;53.11
70027;BME280;57506;50.092;15.804;2022-07-15T11:24:54;99542.75;;;20.02;51.63
70027;BME280;57506;50.092;15.804;2022-07-15T11:27:21;99546.75;;;20.28;49.79
70027;BME280;57506;50.092;15.804;2022-07-15T11:29:51;99546.94;;;19.76;50.74
70027;BME280;57506;50.092;15.804;2022-07-15T11:32:19;99544.75;;;19.50;53.46
70027;BME280;57506;50.092;15.804;2022-07-15T11:34:52;99545.03;;;19.37;53.12
70027;BME280;57506;50.092;15.804;2022-07-15T11:37:22;99552.97;;;19.38;51.49
70027;BME280;57506;50.092;15.804;2022-07-15T11:39:50;99545.91;;;19.26;52.26
70027;BME280;57506;50.092;15.804;2022-07-15T11:42:31;99537.97;;;19.81;52.34
70027;BME280;57506;50.092;15.804;2022-07-15T11:45:14;99544.03;;;19.54;52.99
70027;BME280;57506;50.092;15.804;2022-07-15T11:47:53;99526.09;;;20.04;53.04
70027;BME280;57506;50.092;15.804;2022-07-15T11:50:19;99534.38;;;20.09;51.49
70027;BME280;57506;50.092;15.804;2022-07-15T11:52:45;99537.59;;;19.49;51.27
70027;BME280;57506;50.092;15.804;2022-07-15T11:55:11;99541.09;;;19.33;53.03
70027;BME280;57506;50.092;15.804;2022-07-15T11:57:36;99540.34;;;19.61;53.71
70027;BME280;57506;50.092;15.804;2022-07-15T12:00:03;99534.41;;;19.52;49.93
70027;BME280;57506;50.092;15.804;2022-07-15T12:02:29;99533.09;;;19.14;50.29
70027;BME280;57506;50.092;15.804;2022-07-15T12:05:02;99517.16;;;19.23;52.06
70027;BME280;57506;50.092;15.804;2022-07-15T12:07:58;99521.00;;;19.39;50.76
70027;BME280;57506;50.092;15.804;2022-07-15T12:10:35;99523.59;;;19.57;53.17
70027;BME280;57506;50.092;15.804;2022-07-15T12:13:01;99510.69;;;19.69;50.69
70027;BME280;57506;50.092;15.804;2022-07-15T12:15:32;99519.72;;;19.70;53.44
70027;BME280;57506;50.092;15.804;2022-07-15T12:17:58;99511.19;;;19.66;50.81
70027;BME280;57506;50.092;15.804;2022-07-15T12:20:25;99531.91;;;19.62;49.70
70027;BME280;57506;50.092;15.804;2022-07-15T12:23:05;99514.53;;;19.85;48.81
70027;BME280;57506;50.092;15.804;2022-07-15T12:25:32;99522.94;;;19.67;48.45
70027;BME280;57506;50.092;15.804;2022-07-15T12:27:58;99514.66;;;20.07;49.11
70027;BME280;57506;50.092;15.804;2022-07-15T12:30:35;99500.72;;;20.08;48.70
70027;BME280;57506;50.092;15.804;2022-07-15T12:35:39;99522.44;;;20.32;49.37
70027;BME280;57506;50.092;15.804;2022-07-15T12:38:04;99525.09;;;20.10;47.45
70027;BME280;57506;50.092;15.804;2022-07-15T12:40:30;99520.44;;;19.94;48.43
70027;BME280;57506;50.092;15.804;2022-07-15T12:42:56;99509.75;;;19.92;49.62
70027;BME280;57506;50.092;15.804;2022-07-15T12:45:34;99506.78;;;20.27;51.89
70027;BME280;57506;50.092;15.804;2022-07-15T12:50:31;99513.13;;;19.54;47.19
70027;BME280;57506;50.092;15.804;2022-07-15T12:52:57;99514.50;;;19.68;49.07
70027;BME280;57506;50.092;15.804;2022-07-15T12:55:25;99502.50;;;19.69;48.22
70027;BME280;57506;50.092;15.804;2022-07-15T12:58:11;99504.53;;;19.90;51.82
70027;BME280;57506;50.092;15.804;2022-07-15T13:00:38;99504.34;;;20.14;48.68
70027;BME280;57506;50.092;15.804;2022-07-15T13:05:51;99500.06;;;20.90;47.85
70027;BME280;57506;50.092;15.804;2022-07-15T13:08:20;99506.72;;;20.94;47.47
70027;BME280;57506;50.092;15.804;2022-07-15T13:10:51;99489.22;;;20.40;44.86
70027;BME280;57506;50.092;15.804;2022-07-15T13:13:20;99496.34;;;20.57;46.41
70027;BME280;57506;50.092;15.804;2022-07-15T13:15:47;99496.63;;;20.78;46.62
70027;BME280;57506;50.092;15.804;2022-07-15T13:18:14;99493.72;;;21.06;43.13
70027;BME280;57506;50.092;15.804;2022-07-15T13:20:40;99494.28;;;20.86;45.43
70027;BME280;57506;50.092;15.804;2022-07-15T13:23:06;99496.94;;;20.81;45.96